createdAt,value
2022-08-09T00:00:11.256Z,21.90
2022-08-09T00:02:42.748Z,21.90
2022-08-09T00:06:16.207Z,21.90
2022-08-09T00:08:02.012Z,21.90
2022-08-09T00:10:29.685Z,22.00
2022-08-09T00:12:57.740Z,22.00
2022-08-09T00:15:26.335Z,22.00
2022-08-09T00:18:05.969Z,22.00
2022-08-09T00:20:41.539Z,22.00
2022-08-09T00:23:55.083Z,22.00
2022-08-09T00:26:07.709Z,22.00
2022-08-09T00:28:35.532Z,22.00
2022-08-09T00:31:09.173Z,22.00
2022-08-09T00:33:54.194Z,22.00
2022-08-09T00:36:22.524Z,21.90
2022-08-09T00:38:57.224Z,21.90
2022-08-09T00:44:13.883Z,21.90
2022-08-09T00:44:25.583Z,21.90
2022-08-09T00:46:56.927Z,21.90
2022-08-09T00:49:36.646Z,21.90
2022-08-09T00:52:06.171Z,22.00
2022-08-09T00:54:43.622Z,22.00
2022-08-09T00:57:12.788Z,22.00
2022-08-09T00:59:46.033Z,22.00
2022-08-09T01:02:21.539Z,22.00
2022-08-09T01:05:21.878Z,22.00
2022-08-09T01:08:06.710Z,22.00
2022-08-09T01:10:55.945Z,22.00
2022-08-09T01:13:59.213Z,22.00
2022-08-09T01:16:32.029Z,22.00
2022-08-09T01:19:04.729Z,22.00
2022-08-09T01:21:50.848Z,22.00
2022-08-09T01:24:50.494Z,22.00
2022-08-09T01:27:23.840Z,22.00
2022-08-09T01:29:55.952Z,22.00
2022-08-09T01:32:33.709Z,22.00
2022-08-09T01:35:29.007Z,22.00
2022-08-09T01:38:07.789Z,22.00
2022-08-09T01:41:02.966Z,22.00
2022-08-09T01:43:50.126Z,22.00
2022-08-09T01:46:40.257Z,21.90
2022-08-09T01:49:24.090Z,22.00
2022-08-09T01:52:07.479Z,22.00
2022-08-09T01:54:56.573Z,22.00
2022-08-09T01:57:40.175Z,22.00
2022-08-09T02:00:34.569Z,22.00
2022-08-09T02:03:05.142Z,22.00
2022-08-09T02:05:37.987Z,22.00
2022-08-09T02:08:38.751Z,21.90
2022-08-09T02:11:16.609Z,22.00
2022-08-09T02:13:55.464Z,22.00
2022-08-09T02:16:53.406Z,22.00
2022-08-09T02:19:24.906Z,22.00
2022-08-09T02:22:34.744Z,22.00
2022-08-09T02:25:15.215Z,22.00
2022-08-09T02:27:58.336Z,22.00
2022-08-09T02:30:37.716Z,22.00
2022-08-09T02:33:14.454Z,22.00
2022-08-09T02:36:02.860Z,22.00
2022-08-09T02:38:40.480Z,22.00
2022-08-09T02:41:30.794Z,22.00
2022-08-09T02:44:13.647Z,22.00
2022-08-09T02:46:55.476Z,22.00
2022-08-09T02:49:38.565Z,22.00
2022-08-09T02:52:13.138Z,22.00
2022-08-09T02:54:54.650Z,22.00
2022-08-09T02:57:25.533Z,22.00
2022-08-09T03:00:21.441Z,22.00
2022-08-09T03:02:58.656Z,21.90
2022-08-09T03:05:29.674Z,21.90
2022-08-09T03:08:04.707Z,21.90
2022-08-09T03:10:34.621Z,21.90
2022-08-09T03:13:02.403Z,21.90
2022-08-09T03:15:40.543Z,21.90
2022-08-09T03:18:31.363Z,21.90
2022-08-09T03:21:00.761Z,21.90
2022-08-09T03:23:28.452Z,21.90
2022-08-09T03:26:03.690Z,21.90
2022-08-09T03:28:33.858Z,21.90
2022-08-09T03:31:10.135Z,21.90
2022-08-09T03:33:53.340Z,21.90
2022-08-09T03:36:27.831Z,22.00
2022-08-09T03:38:56.300Z,22.00
2022-08-09T03:41:44.672Z,21.90
2022-08-09T03:44:12.621Z,21.90
2022-08-09T03:46:39.945Z,21.90
2022-08-09T03:49:09.550Z,21.90
2022-08-09T03:51:57.326Z,21.90
2022-08-09T03:54:32.915Z,21.90
2022-08-09T03:57:12.149Z,21.90
2022-08-09T03:59:54.957Z,21.90
2022-08-09T04:02:27.283Z,21.90
2022-08-09T04:05:05.809Z,21.90
2022-08-09T04:07:53.405Z,21.90
2022-08-09T04:10:28.456Z,21.90
2022-08-09T04:13:03.832Z,21.90
2022-08-09T04:16:18.781Z,21.90
2022-08-09T04:18:21.408Z,21.90
2022-08-09T04:20:51.423Z,21.90
2022-08-09T04:23:23.358Z,21.90
2022-08-09T04:25:55.144Z,21.90
2022-08-09T04:28:33.024Z,21.90
2022-08-09T04:31:07.658Z,22.00
2022-08-09T04:33:52.952Z,21.90
2022-08-09T04:36:29.416Z,22.00
2022-08-09T04:39:00.268Z,21.90
2022-08-09T04:41:32.867Z,21.90
2022-08-09T04:44:06.733Z,21.90
2022-08-09T04:46:57.747Z,21.90
2022-08-09T04:49:40.521Z,21.90
2022-08-09T04:52:27.321Z,21.90
2022-08-09T04:54:56.661Z,21.90
2022-08-09T04:57:25.158Z,21.90
2022-08-09T04:59:56.247Z,21.90
2022-08-09T05:02:27.227Z,21.90
2022-08-09T05:04:56.171Z,21.90
2022-08-09T05:07:25.120Z,21.90
2022-08-09T05:09:56.752Z,21.90
2022-08-09T05:12:24.672Z,21.90
2022-08-09T05:14:51.988Z,21.90
2022-08-09T05:18:39.191Z,21.90
2022-08-09T05:20:07.306Z,21.90
2022-08-09T05:23:54.967Z,21.90
2022-08-09T05:25:22.403Z,21.90
2022-08-09T05:27:52.708Z,21.90
2022-08-09T05:30:22.870Z,21.90
2022-08-09T05:32:50.861Z,21.90
2022-08-09T05:35:22.001Z,21.90
2022-08-09T05:37:51.135Z,21.90
2022-08-09T05:40:18.837Z,22.00
2022-08-09T05:42:47.110Z,22.00
2022-08-09T05:45:14.898Z,22.00
2022-08-09T05:47:45.565Z,22.00
2022-08-09T05:50:26.786Z,22.00
2022-08-09T05:53:02.765Z,22.00
2022-08-09T05:55:31.364Z,22.00
2022-08-09T05:57:58.903Z,22.00
2022-08-09T06:00:29.105Z,22.00
2022-08-09T06:03:02.224Z,22.00
2022-08-09T06:05:54.582Z,22.00
2022-08-09T06:08:24.529Z,22.00
2022-08-09T06:10:53.675Z,22.00
2022-08-09T06:13:21.442Z,22.00
2022-08-09T06:15:51.694Z,22.00
2022-08-09T06:18:25.433Z,22.00
2022-08-09T06:20:57.360Z,22.00
2022-08-09T06:23:58.597Z,22.00
2022-08-09T06:26:22.329Z,22.00
2022-08-09T06:29:00.072Z,22.00
2022-08-09T06:31:39.765Z,22.00
2022-08-09T06:34:22.861Z,22.00
2022-08-09T06:36:59.373Z,22.00
2022-08-09T06:39:48.450Z,22.00
2022-08-09T06:42:24.882Z,22.00
2022-08-09T06:44:57.432Z,22.00
2022-08-09T06:47:25.347Z,21.90
2022-08-09T06:50:14.782Z,21.70
2022-08-09T06:52:48.842Z,21.70
2022-08-09T06:55:22.260Z,21.60
2022-08-09T06:58:03.013Z,21.50
2022-08-09T07:00:52.321Z,21.50
2022-08-09T07:03:28.770Z,21.60
2022-08-09T07:06:02.496Z,21.50
2022-08-09T07:08:31.922Z,21.50
2022-08-09T07:10:59.250Z,21.50
2022-08-09T07:13:29.453Z,21.50
2022-08-09T07:16:42.655Z,21.40
2022-08-09T07:18:45.677Z,21.50
2022-08-09T07:21:14.888Z,21.40
2022-08-09T07:23:56.700Z,21.40
2022-08-09T07:26:26.169Z,21.40
2022-08-09T07:29:08.611Z,21.40
2022-08-09T07:31:45.443Z,21.40
2022-08-09T07:34:20.249Z,21.40
2022-08-09T07:36:49.305Z,21.40
2022-08-09T07:39:20.447Z,21.50
2022-08-09T07:42:05.466Z,21.40
2022-08-09T07:44:52.004Z,21.50
2022-08-09T07:47:24.985Z,21.50
2022-08-09T07:50:07.670Z,21.50
2022-08-09T07:52:37.723Z,21.50
2022-08-09T07:55:09.466Z,21.50
2022-08-09T07:57:47.220Z,21.50
2022-08-09T08:00:20.780Z,21.50
2022-08-09T08:03:04.708Z,21.50
2022-08-09T08:05:53.659Z,21.60
2022-08-09T08:09:02.689Z,21.50
2022-08-09T08:12:10.475Z,21.50
2022-08-09T08:13:57.125Z,21.50
2022-08-09T08:16:29.609Z,21.50
2022-08-09T08:19:02.767Z,21.60
2022-08-09T08:21:30.801Z,21.60
2022-08-09T08:24:01.206Z,21.60
2022-08-09T08:26:54.881Z,21.60
2022-08-09T08:29:27.681Z,21.60
2022-08-09T08:32:03.234Z,21.60
2022-08-09T08:34:36.105Z,21.60
2022-08-09T08:37:05.219Z,21.60
2022-08-09T08:39:43.774Z,21.60
2022-08-09T08:42:11.986Z,21.60
2022-08-09T08:44:41.418Z,21.60
2022-08-09T08:47:12.870Z,21.60
2022-08-09T08:49:47.874Z,21.60
2022-08-09T08:52:58.450Z,21.60
2022-08-09T08:55:06.778Z,21.70
2022-08-09T08:57:35.907Z,21.60
2022-08-09T09:00:16.989Z,21.60
2022-08-09T09:03:08.384Z,21.60
2022-08-09T09:06:00.394Z,21.60
2022-08-09T09:08:37.900Z,21.50
2022-08-09T09:11:13.825Z,21.50
2022-08-09T09:13:56.768Z,21.50
2022-08-09T09:16:33.638Z,21.50
2022-08-09T09:19:37.814Z,21.50
2022-08-09T09:22:11.463Z,21.50
2022-08-09T09:24:56.631Z,21.50
2022-08-09T09:28:05.361Z,21.50
2022-08-09T09:30:34.507Z,21.50
2022-08-09T09:33:15.931Z,21.50
2022-08-09T09:36:00.750Z,21.50
2022-08-09T09:38:46.601Z,21.50
2022-08-09T09:41:33.522Z,21.50
2022-08-09T09:44:27.643Z,21.60
2022-08-09T09:47:25.073Z,21.70
2022-08-09T09:50:14.580Z,21.70
2022-08-09T09:52:54.720Z,21.70
2022-08-09T09:55:31.957Z,21.70
2022-08-09T09:58:15.647Z,21.70
2022-08-09T10:00:59.051Z,21.70
2022-08-09T10:03:44.792Z,21.70
2022-08-09T10:06:24.375Z,21.70
2022-08-09T10:08:58.520Z,21.70
2022-08-09T10:12:00.377Z,21.70
2022-08-09T10:14:31.029Z,21.70
2022-08-09T10:17:39.637Z,21.70
2022-08-09T10:20:02.228Z,21.70
2022-08-09T10:22:39.214Z,21.70
2022-08-09T10:25:12.240Z,21.70
2022-08-09T10:27:57.057Z,21.70
2022-08-09T10:33:29.801Z,21.80
2022-08-09T10:36:05.673Z,21.80
2022-08-09T10:38:57.202Z,21.70
2022-08-09T10:41:28.303Z,21.70
2022-08-09T10:43:59.907Z,21.70
2022-08-09T10:46:54.268Z,21.70
2022-08-09T10:49:42.517Z,21.70
2022-08-09T10:52:27.145Z,21.70
2022-08-09T10:54:56.018Z,21.80
2022-08-09T10:57:36.354Z,21.80
2022-08-09T11:00:31.414Z,21.70
2022-08-09T11:03:13.617Z,21.80
2022-08-09T11:06:19.085Z,21.80
2022-08-09T11:08:53.401Z,21.70
2022-08-09T11:11:23.251Z,21.70
2022-08-09T11:14:28.955Z,21.70
2022-08-09T11:17:00.267Z,21.70
2022-08-09T11:20:11.650Z,21.70
2022-08-09T11:22:47.279Z,21.70
2022-08-09T11:25:47.154Z,21.80
2022-08-09T11:28:54.174Z,21.80
2022-08-09T11:31:53.070Z,21.80
2022-08-09T11:34:45.480Z,21.70
2022-08-09T11:37:31.243Z,21.70
2022-08-09T11:40:11.509Z,21.80
2022-08-09T11:42:51.543Z,21.80
2022-08-09T11:45:22.032Z,21.80
2022-08-09T11:48:08.160Z,21.80
2022-08-09T11:52:59.228Z,21.80
2022-08-09T11:54:01.256Z,21.80
2022-08-09T11:56:34.481Z,21.80
2022-08-09T11:59:11.689Z,21.80
2022-08-09T12:02:17.473Z,21.80
2022-08-09T12:04:32.539Z,21.80
2022-08-09T12:07:08.199Z,21.80
2022-08-09T12:09:36.465Z,21.80
2022-08-09T12:12:13.065Z,21.90
2022-08-09T12:15:07.970Z,21.90
2022-08-09T12:17:43.283Z,21.90
2022-08-09T12:20:23.288Z,21.90
2022-08-09T12:22:57.089Z,21.90
2022-08-09T12:25:35.969Z,21.90
2022-08-09T12:29:14.071Z,21.90
2022-08-09T12:31:11.106Z,21.90
2022-08-09T12:34:00.996Z,22.10
2022-08-09T12:36:33.602Z,22.40
2022-08-09T12:39:13.541Z,22.70
2022-08-09T12:41:41.397Z,22.90
2022-08-09T12:44:13.010Z,22.90
2022-08-09T12:46:48.560Z,22.90
2022-08-09T12:49:18.042Z,22.80
2022-08-09T12:52:01.502Z,22.70
2022-08-09T12:56:10.798Z,22.70
2022-08-09T12:57:46.903Z,22.60
2022-08-09T13:00:26.198Z,22.60
2022-08-09T13:03:02.988Z,22.60
2022-08-09T13:05:51.730Z,22.60
2022-08-09T13:08:40.395Z,22.60
2022-08-09T13:11:23.273Z,22.60
2022-08-09T13:14:41.987Z,22.60
2022-08-09T13:16:50.319Z,22.50
2022-08-09T13:20:08.396Z,22.50
2022-08-09T13:22:35.528Z,22.60
2022-08-09T13:25:13.859Z,22.60
2022-08-09T13:27:55.206Z,22.60
2022-08-09T13:30:51.591Z,22.60
2022-08-09T13:33:22.683Z,22.60
2022-08-09T13:36:38.866Z,22.60
2022-08-09T13:38:57.738Z,22.60
2022-08-09T13:41:59.160Z,22.60
2022-08-09T13:44:13.825Z,22.60
2022-08-09T13:47:29.131Z,22.60
2022-08-09T13:49:55.877Z,22.60
2022-08-09T13:52:24.880Z,22.60
2022-08-09T13:54:59.954Z,22.70
2022-08-09T13:57:39.433Z,22.60
2022-08-09T14:00:15.973Z,22.70
2022-08-09T14:03:02.936Z,22.70
2022-08-09T14:05:59.585Z,22.60
2022-08-09T14:08:21.660Z,22.60
2022-08-09T14:10:52.552Z,22.60
2022-08-09T14:13:28.237Z,22.70
2022-08-09T14:16:15.534Z,22.70
2022-08-09T14:18:49.804Z,22.70
2022-08-09T14:21:24.230Z,22.70
2022-08-09T14:23:56.535Z,22.70
2022-08-09T14:26:32.720Z,22.70
2022-08-09T14:29:08.211Z,22.70
2022-08-09T14:31:54.721Z,22.70
2022-08-09T14:34:31.910Z,22.70
2022-08-09T14:37:02.249Z,22.70
2022-08-09T14:39:46.395Z,22.60
2022-08-09T14:42:28.485Z,22.60
2022-08-09T14:46:39.588Z,22.60
2022-08-09T14:47:58.898Z,22.60
2022-08-09T14:50:32.679Z,22.60
2022-08-09T14:53:12.140Z,22.60
2022-08-09T14:55:48.054Z,22.60
2022-08-09T14:58:18.354Z,22.60
2022-08-09T15:00:51.268Z,22.60
2022-08-09T15:03:20.698Z,22.60
2022-08-09T15:05:52.583Z,22.60
2022-08-09T15:08:24.318Z,22.60
2022-08-09T15:11:01.326Z,22.60
2022-08-09T15:13:56.822Z,22.50
2022-08-09T15:16:19.795Z,22.50
2022-08-09T15:18:48.284Z,22.60
2022-08-09T15:22:00.526Z,22.50
2022-08-09T15:24:12.412Z,22.50
2022-08-09T15:26:45.919Z,22.50
2022-08-09T15:30:58.149Z,22.50
2022-08-09T15:32:02.453Z,22.50
2022-08-09T15:34:34.233Z,22.50
2022-08-09T15:37:04.058Z,22.50
2022-08-09T15:39:43.708Z,22.50
2022-08-09T15:42:19.688Z,22.50
2022-08-09T15:44:50.179Z,22.50
2022-08-09T15:47:22.853Z,22.50
2022-08-09T15:50:03.449Z,22.50
2022-08-09T15:52:33.813Z,22.50
2022-08-09T15:55:02.884Z,22.50
2022-08-09T15:57:35.147Z,22.50
2022-08-09T16:00:24.473Z,22.50
2022-08-09T16:02:56.433Z,22.50
2022-08-09T16:05:47.402Z,22.50
2022-08-09T16:08:31.048Z,22.50
2022-08-09T16:11:02.865Z,22.50
2022-08-09T16:14:05.061Z,22.50
2022-08-09T16:16:19.757Z,22.50
2022-08-09T16:18:50.249Z,22.50
2022-08-09T16:21:25.171Z,22.50
2022-08-09T16:23:58.904Z,22.50
2022-08-09T16:26:35.042Z,22.50
2022-08-09T16:29:11.009Z,22.50
2022-08-09T16:32:18.710Z,22.50
2022-08-09T16:34:54.892Z,22.50
2022-08-09T16:37:50.618Z,22.50
2022-08-09T16:40:09.933Z,22.50
2022-08-09T16:42:37.719Z,22.50
2022-08-09T16:45:06.412Z,22.50
2022-08-09T16:48:41.797Z,22.50
2022-08-09T16:50:29.819Z,22.50
2022-08-09T16:53:00.926Z,22.50
2022-08-09T16:55:44.160Z,22.50
2022-08-09T16:58:17.310Z,22.50
2022-08-09T17:00:46.669Z,22.50
2022-08-09T17:03:21.603Z,22.40
2022-08-09T17:06:07.017Z,22.40
2022-08-09T17:08:42.702Z,22.40
2022-08-09T17:11:24.481Z,22.30
2022-08-09T17:14:01.331Z,22.30
2022-08-09T17:16:29.558Z,22.30
2022-08-09T17:18:58.380Z,22.30
2022-08-09T17:21:28.972Z,22.30
2022-08-09T17:24:27.628Z,22.30
2022-08-09T17:26:47.732Z,22.30
2022-08-09T17:29:20.353Z,22.30
2022-08-09T17:31:49.460Z,22.20
2022-08-09T17:34:59.809Z,22.20
2022-08-09T17:37:04.968Z,22.20
2022-08-09T17:39:48.501Z,22.20
2022-08-09T17:42:42.221Z,22.20
2022-08-09T17:45:23.761Z,22.20
2022-08-09T17:48:02.495Z,22.20
2022-08-09T17:50:37.316Z,22.10
2022-08-09T17:53:19.657Z,22.10
2022-08-09T17:55:54.120Z,22.10
2022-08-09T17:58:27.092Z,22.10
2022-08-09T18:00:56.511Z,22.10
2022-08-09T18:03:26.451Z,22.10
2022-08-09T18:05:57.834Z,22.10
2022-08-09T18:08:28.377Z,22.10
2022-08-09T18:11:01.946Z,22.10
2022-08-09T18:13:39.270Z,22.10
2022-08-09T18:16:11.967Z,22.10
2022-08-09T18:18:43.077Z,22.10
2022-08-09T18:21:21.488Z,22.10
2022-08-09T18:24:10.522Z,22.10
2022-08-09T18:26:46.835Z,22.10
2022-08-09T18:30:39.885Z,22.00
2022-08-09T18:32:04.993Z,22.00
2022-08-09T18:34:35.266Z,22.00
2022-08-09T18:37:03.748Z,22.00
2022-08-09T18:39:32.688Z,21.90
2022-08-09T18:42:08.021Z,21.90
2022-08-09T18:44:35.570Z,21.90
2022-08-09T18:47:04.911Z,21.90
2022-08-09T18:49:46.128Z,21.90
2022-08-09T18:52:24.548Z,22.10
2022-08-09T18:55:04.088Z,22.20
2022-08-09T18:57:38.512Z,22.20
2022-08-09T19:00:19.189Z,22.20
2022-08-09T19:02:51.233Z,22.20
2022-08-09T19:05:48.815Z,22.00
2022-08-09T19:08:10.759Z,22.00
2022-08-09T19:10:46.148Z,22.00
2022-08-09T19:13:22.110Z,21.90
2022-08-09T19:15:52.431Z,21.90
2022-08-09T19:18:34.262Z,22.00
2022-08-09T19:21:09.873Z,22.00
2022-08-09T19:24:36.427Z,22.00
2022-08-09T19:26:31.311Z,21.90
2022-08-09T19:29:03.119Z,21.90
2022-08-09T19:31:44.086Z,21.90
2022-08-09T19:34:21.153Z,21.80
2022-08-09T19:36:52.594Z,21.70
2022-08-09T19:39:43.523Z,21.70
2022-08-09T19:42:08.921Z,21.70
2022-08-09T19:44:42.754Z,21.60
2022-08-09T19:47:11.072Z,21.70
2022-08-09T19:50:06.931Z,21.70
2022-08-09T19:52:27.325Z,21.60
2022-08-09T19:54:55.921Z,21.60
2022-08-09T19:57:26.344Z,21.70
2022-08-09T20:00:05.694Z,21.70
2022-08-09T20:04:07.401Z,21.70
2022-08-09T20:05:23.685Z,21.60
2022-08-09T20:07:59.716Z,21.60
2022-08-09T20:10:34.890Z,21.70
2022-08-09T20:13:06.290Z,21.60
2022-08-09T20:16:38.056Z,21.60
2022-08-09T20:18:27.975Z,21.60
2022-08-09T20:20:56.980Z,21.70
2022-08-09T20:23:39.042Z,21.60
2022-08-09T20:26:10.043Z,21.60
2022-08-09T20:28:49.809Z,21.70
2022-08-09T20:31:17.975Z,21.60
2022-08-09T20:33:46.645Z,21.70
2022-08-09T20:36:20.321Z,21.70
2022-08-09T20:41:37.717Z,21.60
2022-08-09T20:44:10.028Z,21.60
2022-08-09T20:46:43.324Z,21.60
2022-08-09T20:49:13.734Z,21.60
2022-08-09T20:51:42.301Z,21.60
2022-08-09T20:54:16.558Z,21.60
2022-08-09T20:56:46.657Z,21.60
2022-08-09T20:59:17.136Z,21.60
2022-08-09T21:01:50.091Z,21.60
2022-08-09T21:05:54.407Z,21.50
2022-08-09T21:07:12.534Z,21.60
2022-08-09T21:09:55.269Z,21.60
2022-08-09T21:15:12.912Z,21.60
2022-08-09T21:18:21.687Z,21.60
2022-08-09T21:20:32.551Z,21.60
2022-08-09T21:23:03.090Z,21.50
2022-08-09T21:25:55.436Z,21.50
2022-08-09T21:28:34.436Z,21.50
2022-08-09T21:31:16.130Z,21.50
2022-08-09T21:33:51.654Z,21.50
2022-08-09T21:36:27.742Z,21.50
2022-08-09T21:38:57.430Z,21.50
2022-08-09T21:42:05.526Z,21.50
2022-08-09T21:44:34.563Z,21.50
2022-08-09T21:47:05.823Z,21.50
2022-08-09T21:49:39.270Z,21.50
2022-08-09T21:52:17.862Z,21.50
2022-08-09T21:54:50.641Z,21.50
2022-08-09T21:57:39.385Z,21.50
2022-08-09T22:00:25.379Z,21.50
2022-08-09T22:02:59.061Z,21.50
2022-08-09T22:05:35.560Z,21.50
2022-08-09T22:08:13.809Z,21.50
2022-08-09T22:11:26.442Z,21.60
2022-08-09T22:13:34.223Z,21.50
2022-08-09T22:16:07.142Z,21.50
2022-08-09T22:18:53.664Z,21.50
2022-08-09T22:21:49.591Z,21.50
2022-08-09T22:24:16.537Z,21.50
2022-08-09T22:26:47.879Z,21.40
2022-08-09T22:29:24.110Z,21.40
2022-08-09T22:31:57.569Z,21.40
2022-08-09T22:34:26.928Z,21.50
2022-08-09T22:36:56.419Z,21.50
2022-08-09T22:39:55.269Z,21.50
2022-08-09T22:42:20.951Z,21.50
2022-08-09T22:48:04.719Z,21.40
2022-08-09T22:48:15.362Z,21.40
2022-08-09T22:50:27.106Z,21.50
2022-08-09T22:52:58.141Z,21.50
2022-08-09T22:55:39.376Z,21.50
2022-08-09T22:58:30.874Z,21.50
2022-08-09T23:01:05.855Z,21.50
2022-08-09T23:04:04.160Z,21.50
2022-08-09T23:06:34.965Z,21.40
2022-08-09T23:09:05.600Z,21.40
2022-08-09T23:11:32.999Z,21.50
2022-08-09T23:14:00.341Z,21.50
2022-08-09T23:16:27.737Z,21.40
2022-08-09T23:18:55.027Z,21.40
2022-08-09T23:21:23.908Z,21.50
2022-08-09T23:24:05.601Z,21.50
2022-08-09T23:26:38.751Z,21.40
2022-08-09T23:29:07.923Z,21.40
2022-08-09T23:31:35.268Z,21.40
2022-08-09T23:34:03.922Z,21.40
2022-08-09T23:36:32.614Z,21.40
2022-08-09T23:39:00.321Z,21.50
2022-08-09T23:41:29.685Z,21.50
2022-08-09T23:44:01.644Z,21.50
2022-08-09T23:46:30.676Z,21.50
2022-08-09T23:48:59.519Z,21.50
2022-08-09T23:51:27.753Z,21.50
2022-08-09T23:54:02.503Z,21.50
2022-08-09T23:56:52.353Z,21.50
2022-08-09T23:59:20.471Z,21.60
